sensor_id;sensor_type;location;lat;lon;timestamp;P1;durP1;ratioP1;P2;durP2;ratioP2
76021;SDS011;64718;52.124;6.226;2024-02-15T00:02:16;12.63;;;5.13;;
76021;SDS011;64718;52.124;6.226;2024-02-15T00:04:42;14.23;;;5.82;;
76021;SDS011;64718;52.124;6.226;2024-02-15T00:07:11;15.57;;;7.50;;
76021;SDS011;64718;52.124;6.226;2024-02-15T00:09:37;17.42;;;6.95;;
76021;SDS011;64718;52.124;6.226;2024-02-15T00:12:04;16.05;;;6.80;;
76021;SDS011;64718;52.124;6.226;2024-02-15T00:14:31;15.23;;;6.65;;
76021;SDS011;64718;52.124;6.226;2024-02-15T00:16:58;14.93;;;7.43;;
76021;SDS011;64718;52.124;6.226;2024-02-15T00:19:24;14.93;;;6.40;;
76021;SDS011;64718;52.124;6.226;2024-02-15T00:21:54;15.75;;;7.78;;
76021;SDS011;64718;52.124;6.226;2024-02-15T00:24:22;15.70;;;6.63;;
76021;SDS011;64718;52.124;6.226;2024-02-15T00:26:50;15.55;;;6.05;;
76021;SDS011;64718;52.124;6.226;2024-02-15T00:29:16;14.65;;;5.60;;
76021;SDS011;64718;52.124;6.226;2024-02-15T00:31:43;12.30;;;6.28;;
76021;SDS011;64718;52.124;6.226;2024-02-15T00:34:09;12.98;;;5.70;;
76021;SDS011;64718;52.124;6.226;2024-02-15T00:36:36;16.65;;;6.75;;
76021;SDS011;64718;52.124;6.226;2024-02-15T00:39:03;13.00;;;7.25;;
76021;SDS011;64718;52.124;6.226;2024-02-15T00:41:32;17.33;;;6.97;;
76021;SDS011;64718;52.124;6.226;2024-02-15T00:43:59;12.40;;;6.20;;
76021;SDS011;64718;52.124;6.226;2024-02-15T00:46:26;15.95;;;7.53;;
76021;SDS011;64718;52.124;6.226;2024-02-15T00:48:54;14.10;;;6.43;;
76021;SDS011;64718;52.124;6.226;2024-02-15T00:51:20;21.67;;;8.38;;
76021;SDS011;64718;52.124;6.226;2024-02-15T00:53:47;17.60;;;7.97;;
76021;SDS011;64718;52.124;6.226;2024-02-15T00:56:14;15.02;;;7.50;;
76021;SDS011;64718;52.124;6.226;2024-02-15T00:58:42;17.30;;;7.55;;
76021;SDS011;64718;52.124;6.226;2024-02-15T01:01:08;16.80;;;8.30;;
76021;SDS011;64718;52.124;6.226;2024-02-15T01:03:35;15.60;;;7.68;;
76021;SDS011;64718;52.124;6.226;2024-02-15T01:06:03;14.30;;;6.72;;
76021;SDS011;64718;52.124;6.226;2024-02-15T01:08:30;17.00;;;7.47;;
76021;SDS011;64718;52.124;6.226;2024-02-15T01:10:57;16.38;;;8.02;;
76021;SDS011;64718;52.124;6.226;2024-02-15T01:13:24;13.85;;;7.45;;
76021;SDS011;64718;52.124;6.226;2024-02-15T01:15:52;17.98;;;8.48;;
76021;SDS011;64718;52.124;6.226;2024-02-15T01:18:18;17.45;;;7.18;;
76021;SDS011;64718;52.124;6.226;2024-02-15T01:20:45;17.73;;;9.10;;
76021;SDS011;64718;52.124;6.226;2024-02-15T01:23:11;16.10;;;8.57;;
76021;SDS011;64718;52.124;6.226;2024-02-15T01:25:38;17.98;;;9.80;;
76021;SDS011;64718;52.124;6.226;2024-02-15T01:28:05;22.15;;;9.45;;
76021;SDS011;64718;52.124;6.226;2024-02-15T01:30:32;21.55;;;10.05;;
76021;SDS011;64718;52.124;6.226;2024-02-15T01:32:59;21.73;;;10.85;;
76021;SDS011;64718;52.124;6.226;2024-02-15T01:35:27;25.17;;;11.18;;
76021;SDS011;64718;52.124;6.226;2024-02-15T01:37:53;21.98;;;10.32;;
76021;SDS011;64718;52.124;6.226;2024-02-15T01:40:20;21.77;;;11.05;;
76021;SDS011;64718;52.124;6.226;2024-02-15T01:42:47;25.33;;;12.77;;
76021;SDS011;64718;52.124;6.226;2024-02-15T01:45:14;26.98;;;12.45;;
76021;SDS011;64718;52.124;6.226;2024-02-15T01:47:41;25.23;;;12.63;;
76021;SDS011;64718;52.124;6.226;2024-02-15T01:50:10;27.77;;;14.52;;
76021;SDS011;64718;52.124;6.226;2024-02-15T01:52:37;26.30;;;13.02;;
76021;SDS011;64718;52.124;6.226;2024-02-15T01:55:05;26.95;;;13.60;;
76021;SDS011;64718;52.124;6.226;2024-02-15T01:57:33;26.98;;;13.05;;
76021;SDS011;64718;52.124;6.226;2024-02-15T02:00:00;25.00;;;12.30;;
76021;SDS011;64718;52.124;6.226;2024-02-15T02:02:28;27.85;;;13.50;;
76021;SDS011;64718;52.124;6.226;2024-02-15T02:04:58;26.40;;;12.40;;
76021;SDS011;64718;52.124;6.226;2024-02-15T02:07:26;31.00;;;14.48;;
76021;SDS011;64718;52.124;6.226;2024-02-15T02:09:53;21.20;;;12.20;;
76021;SDS011;64718;52.124;6.226;2024-02-15T02:12:20;27.90;;;12.43;;
76021;SDS011;64718;52.124;6.226;2024-02-15T02:14:47;28.98;;;12.02;;
76021;SDS011;64718;52.124;6.226;2024-02-15T02:17:14;25.80;;;12.35;;
76021;SDS011;64718;52.124;6.226;2024-02-15T02:19:41;23.77;;;12.70;;
76021;SDS011;64718;52.124;6.226;2024-02-15T02:22:08;25.98;;;12.38;;
76021;SDS011;64718;52.124;6.226;2024-02-15T02:24:40;24.98;;;13.00;;
76021;SDS011;64718;52.124;6.226;2024-02-15T02:27:12;24.85;;;10.73;;
76021;SDS011;64718;52.124;6.226;2024-02-15T02:29:42;27.05;;;12.88;;
76021;SDS011;64718;52.124;6.226;2024-02-15T02:32:10;26.10;;;10.65;;
76021;SDS011;64718;52.124;6.226;2024-02-15T02:34:37;25.40;;;11.43;;
76021;SDS011;64718;52.124;6.226;2024-02-15T02:37:03;22.55;;;10.23;;
76021;SDS011;64718;52.124;6.226;2024-02-15T02:39:32;22.95;;;10.35;;
76021;SDS011;64718;52.124;6.226;2024-02-15T02:41:59;23.08;;;11.48;;
76021;SDS011;64718;52.124;6.226;2024-02-15T02:44:27;20.55;;;11.25;;
76021;SDS011;64718;52.124;6.226;2024-02-15T02:46:53;23.38;;;12.25;;
76021;SDS011;64718;52.124;6.226;2024-02-15T02:49:20;22.55;;;11.95;;
76021;SDS011;64718;52.124;6.226;2024-02-15T02:51:46;23.95;;;11.90;;
76021;SDS011;64718;52.124;6.226;2024-02-15T02:54:13;24.10;;;11.38;;
76021;SDS011;64718;52.124;6.226;2024-02-15T02:56:40;25.88;;;11.38;;
76021;SDS011;64718;52.124;6.226;2024-02-15T02:59:08;26.42;;;11.77;;
76021;SDS011;64718;52.124;6.226;2024-02-15T03:01:36;26.20;;;12.45;;
76021;SDS011;64718;52.124;6.226;2024-02-15T03:04:04;26.45;;;12.68;;
76021;SDS011;64718;52.124;6.226;2024-02-15T03:06:31;22.42;;;10.98;;
76021;SDS011;64718;52.124;6.226;2024-02-15T03:08:58;27.00;;;11.95;;
76021;SDS011;64718;52.124;6.226;2024-02-15T03:11:24;25.98;;;11.68;;
76021;SDS011;64718;52.124;6.226;2024-02-15T03:13:51;26.80;;;12.48;;
76021;SDS011;64718;52.124;6.226;2024-02-15T03:16:21;25.80;;;12.77;;
76021;SDS011;64718;52.124;6.226;2024-02-15T03:18:51;26.70;;;10.95;;
76021;SDS011;64718;52.124;6.226;2024-02-15T03:21:18;26.77;;;13.50;;
76021;SDS011;64718;52.124;6.226;2024-02-15T03:23:46;25.33;;;12.60;;
76021;SDS011;64718;52.124;6.226;2024-02-15T03:26:13;25.23;;;11.80;;
76021;SDS011;64718;52.124;6.226;2024-02-15T03:28:39;26.75;;;11.93;;
76021;SDS011;64718;52.124;6.226;2024-02-15T03:31:06;23.02;;;12.63;;
76021;SDS011;64718;52.124;6.226;2024-02-15T03:33:33;21.70;;;10.57;;
76021;SDS011;64718;52.124;6.226;2024-02-15T03:36:01;20.00;;;11.02;;
76021;SDS011;64718;52.124;6.226;2024-02-15T03:38:28;21.98;;;11.52;;
76021;SDS011;64718;52.124;6.226;2024-02-15T03:40:56;23.10;;;11.30;;
76021;SDS011;64718;52.124;6.226;2024-02-15T03:43:23;21.40;;;10.85;;
76021;SDS011;64718;52.124;6.226;2024-02-15T03:45:49;19.83;;;10.80;;
76021;SDS011;64718;52.124;6.226;2024-02-15T03:48:17;25.75;;;13.18;;
76021;SDS011;64718;52.124;6.226;2024-02-15T03:50:43;32.20;;;12.75;;
76021;SDS011;64718;52.124;6.226;2024-02-15T03:53:11;22.15;;;11.07;;
76021;SDS011;64718;52.124;6.226;2024-02-15T03:55:39;22.67;;;10.88;;
76021;SDS011;64718;52.124;6.226;2024-02-15T03:58:06;20.27;;;10.50;;
76021;SDS011;64718;52.124;6.226;2024-02-15T04:00:32;23.80;;;10.27;;
76021;SDS011;64718;52.124;6.226;2024-02-15T04:02:59;22.98;;;10.88;;
76021;SDS011;64718;52.124;6.226;2024-02-15T04:05:26;25.88;;;11.02;;
76021;SDS011;64718;52.124;6.226;2024-02-15T04:07:54;20.75;;;9.93;;
76021;SDS011;64718;52.124;6.226;2024-02-15T04:10:22;19.85;;;9.50;;
76021;SDS011;64718;52.124;6.226;2024-02-15T04:12:48;23.70;;;10.15;;
76021;SDS011;64718;52.124;6.226;2024-02-15T04:15:15;19.13;;;10.18;;
76021;SDS011;64718;52.124;6.226;2024-02-15T04:17:42;17.92;;;9.77;;
76021;SDS011;64718;52.124;6.226;2024-02-15T04:20:09;17.33;;;9.80;;
76021;SDS011;64718;52.124;6.226;2024-02-15T04:22:37;23.10;;;10.27;;
76021;SDS011;64718;52.124;6.226;2024-02-15T04:25:04;18.70;;;8.75;;
76021;SDS011;64718;52.124;6.226;2024-02-15T04:27:33;19.13;;;10.40;;
76021;SDS011;64718;52.124;6.226;2024-02-15T04:30:00;20.48;;;10.07;;
76021;SDS011;64718;52.124;6.226;2024-02-15T04:32:28;16.20;;;7.43;;
76021;SDS011;64718;52.124;6.226;2024-02-15T04:34:58;18.48;;;8.88;;
76021;SDS011;64718;52.124;6.226;2024-02-15T04:37:24;18.27;;;7.78;;
76021;SDS011;64718;52.124;6.226;2024-02-15T04:39:52;17.75;;;8.20;;
76021;SDS011;64718;52.124;6.226;2024-02-15T04:42:18;17.23;;;9.82;;
76021;SDS011;64718;52.124;6.226;2024-02-15T04:44:46;21.13;;;8.75;;
76021;SDS011;64718;52.124;6.226;2024-02-15T04:47:13;15.50;;;7.90;;
76021;SDS011;64718;52.124;6.226;2024-02-15T04:49:39;21.60;;;8.45;;
76021;SDS011;64718;52.124;6.226;2024-02-15T04:52:07;15.50;;;7.88;;
76021;SDS011;64718;52.124;6.226;2024-02-15T04:54:34;15.82;;;7.78;;
76021;SDS011;64718;52.124;6.226;2024-02-15T04:57:00;19.52;;;8.18;;
76021;SDS011;64718;52.124;6.226;2024-02-15T04:59:27;21.35;;;8.48;;
76021;SDS011;64718;52.124;6.226;2024-02-15T05:01:55;18.58;;;7.85;;
76021;SDS011;64718;52.124;6.226;2024-02-15T05:04:22;15.00;;;7.03;;
76021;SDS011;64718;52.124;6.226;2024-02-15T05:06:49;18.20;;;7.18;;
76021;SDS011;64718;52.124;6.226;2024-02-15T05:09:16;18.25;;;7.10;;
76021;SDS011;64718;52.124;6.226;2024-02-15T05:11:43;11.85;;;6.43;;
76021;SDS011;64718;52.124;6.226;2024-02-15T05:16:43;13.82;;;6.53;;
76021;SDS011;64718;52.124;6.226;2024-02-15T05:19:14;17.10;;;7.10;;
76021;SDS011;64718;52.124;6.226;2024-02-15T05:21:40;14.50;;;6.72;;
76021;SDS011;64718;52.124;6.226;2024-02-15T05:24:10;14.80;;;7.43;;
76021;SDS011;64718;52.124;6.226;2024-02-15T05:26:36;14.80;;;6.85;;
76021;SDS011;64718;52.124;6.226;2024-02-15T05:29:03;12.73;;;7.03;;
76021;SDS011;64718;52.124;6.226;2024-02-15T05:31:29;15.23;;;7.20;;
76021;SDS011;64718;52.124;6.226;2024-02-15T05:33:56;14.45;;;7.07;;
76021;SDS011;64718;52.124;6.226;2024-02-15T05:36:24;11.90;;;7.45;;
76021;SDS011;64718;52.124;6.226;2024-02-15T05:38:51;12.93;;;6.45;;
76021;SDS011;64718;52.124;6.226;2024-02-15T05:41:18;9.60;;;5.75;;
76021;SDS011;64718;52.124;6.226;2024-02-15T05:43:46;12.88;;;5.88;;
76021;SDS011;64718;52.124;6.226;2024-02-15T05:46:13;14.15;;;6.22;;
76021;SDS011;64718;52.124;6.226;2024-02-15T05:48:40;11.38;;;5.80;;
76021;SDS011;64718;52.124;6.226;2024-02-15T05:51:07;10.75;;;5.10;;
76021;SDS011;64718;52.124;6.226;2024-02-15T05:53:35;12.40;;;5.72;;
76021;SDS011;64718;52.124;6.226;2024-02-15T05:56:02;10.30;;;5.72;;
76021;SDS011;64718;52.124;6.226;2024-02-15T05:58:30;10.00;;;4.97;;
76021;SDS011;64718;52.124;6.226;2024-02-15T06:00:57;12.68;;;5.32;;
76021;SDS011;64718;52.124;6.226;2024-02-15T06:03:26;8.77;;;4.80;;
76021;SDS011;64718;52.124;6.226;2024-02-15T06:05:53;10.80;;;5.65;;
76021;SDS011;64718;52.124;6.226;2024-02-15T06:08:23;9.23;;;5.15;;
76021;SDS011;64718;52.124;6.226;2024-02-15T06:10:51;12.18;;;5.35;;
76021;SDS011;64718;52.124;6.226;2024-02-15T06:13:17;11.73;;;5.50;;
76021;SDS011;64718;52.124;6.226;2024-02-15T06:15:44;11.07;;;5.55;;
76021;SDS011;64718;52.124;6.226;2024-02-15T06:18:12;10.23;;;5.15;;
76021;SDS011;64718;52.124;6.226;2024-02-15T06:20:39;11.88;;;5.60;;
76021;SDS011;64718;52.124;6.226;2024-02-15T06:23:07;8.30;;;5.15;;
76021;SDS011;64718;52.124;6.226;2024-02-15T06:25:34;13.90;;;5.28;;
76021;SDS011;64718;52.124;6.226;2024-02-15T06:28:03;7.20;;;4.72;;
76021;SDS011;64718;52.124;6.226;2024-02-15T06:30:38;12.10;;;5.38;;
76021;SDS011;64718;52.124;6.226;2024-02-15T06:33:23;8.73;;;5.65;;
76021;SDS011;64718;52.124;6.226;2024-02-15T06:36:07;8.75;;;5.00;;
76021;SDS011;64718;52.124;6.226;2024-02-15T06:38:51;12.77;;;4.80;;
76021;SDS011;64718;52.124;6.226;2024-02-15T06:41:35;14.82;;;6.05;;
76021;SDS011;64718;52.124;6.226;2024-02-15T06:44:03;14.95;;;5.85;;
76021;SDS011;64718;52.124;6.226;2024-02-15T06:46:29;9.07;;;4.85;;
76021;SDS011;64718;52.124;6.226;2024-02-15T06:48:56;10.30;;;4.95;;
76021;SDS011;64718;52.124;6.226;2024-02-15T06:51:23;10.45;;;4.47;;
76021;SDS011;64718;52.124;6.226;2024-02-15T06:53:50;9.82;;;5.25;;
76021;SDS011;64718;52.124;6.226;2024-02-15T06:56:20;10.02;;;5.18;;
76021;SDS011;64718;52.124;6.226;2024-02-15T06:58:47;10.65;;;5.10;;
76021;SDS011;64718;52.124;6.226;2024-02-15T07:01:15;8.60;;;4.30;;
76021;SDS011;64718;52.124;6.226;2024-02-15T07:06:10;7.95;;;4.28;;
76021;SDS011;64718;52.124;6.226;2024-02-15T07:08:38;6.68;;;3.70;;
76021;SDS011;64718;52.124;6.226;2024-02-15T07:11:06;7.88;;;4.55;;
76021;SDS011;64718;52.124;6.226;2024-02-15T07:13:34;11.43;;;5.40;;
76021;SDS011;64718;52.124;6.226;2024-02-15T07:16:01;9.43;;;4.57;;
76021;SDS011;64718;52.124;6.226;2024-02-15T07:18:30;9.55;;;4.72;;
76021;SDS011;64718;52.124;6.226;2024-02-15T07:20:56;10.40;;;5.10;;
76021;SDS011;64718;52.124;6.226;2024-02-15T07:23:25;11.10;;;5.53;;
76021;SDS011;64718;52.124;6.226;2024-02-15T07:25:52;8.98;;;5.22;;
76021;SDS011;64718;52.124;6.226;2024-02-15T07:28:19;8.88;;;4.68;;
76021;SDS011;64718;52.124;6.226;2024-02-15T07:30:45;9.13;;;4.95;;
76021;SDS011;64718;52.124;6.226;2024-02-15T07:33:13;10.32;;;5.18;;
76021;SDS011;64718;52.124;6.226;2024-02-15T07:35:44;9.63;;;5.22;;
76021;SDS011;64718;52.124;6.226;2024-02-15T07:38:10;12.18;;;5.20;;
76021;SDS011;64718;52.124;6.226;2024-02-15T07:40:37;8.65;;;4.45;;
76021;SDS011;64718;52.124;6.226;2024-02-15T07:43:05;8.45;;;4.80;;
76021;SDS011;64718;52.124;6.226;2024-02-15T07:45:32;8.35;;;4.18;;
76021;SDS011;64718;52.124;6.226;2024-02-15T07:48:02;10.73;;;4.55;;
76021;SDS011;64718;52.124;6.226;2024-02-15T07:50:30;10.32;;;5.10;;
76021;SDS011;64718;52.124;6.226;2024-02-15T07:52:58;9.65;;;4.65;;
76021;SDS011;64718;52.124;6.226;2024-02-15T07:55:25;9.55;;;4.88;;
76021;SDS011;64718;52.124;6.226;2024-02-15T07:57:51;9.35;;;5.07;;
76021;SDS011;64718;52.124;6.226;2024-02-15T08:00:18;8.65;;;4.07;;
76021;SDS011;64718;52.124;6.226;2024-02-15T08:02:45;7.82;;;4.45;;
76021;SDS011;64718;52.124;6.226;2024-02-15T08:05:12;11.15;;;4.70;;
76021;SDS011;64718;52.124;6.226;2024-02-15T08:07:41;9.50;;;4.63;;
76021;SDS011;64718;52.124;6.226;2024-02-15T08:10:11;7.22;;;5.18;;
76021;SDS011;64718;52.124;6.226;2024-02-15T08:12:39;7.65;;;4.15;;
76021;SDS011;64718;52.124;6.226;2024-02-15T08:15:07;7.85;;;3.75;;
76021;SDS011;64718;52.124;6.226;2024-02-15T08:17:37;8.65;;;4.63;;
76021;SDS011;64718;52.124;6.226;2024-02-15T08:20:05;8.18;;;4.82;;
76021;SDS011;64718;52.124;6.226;2024-02-15T08:22:33;7.22;;;4.78;;
76021;SDS011;64718;52.124;6.226;2024-02-15T08:25:00;10.32;;;4.50;;
76021;SDS011;64718;52.124;6.226;2024-02-15T08:27:31;6.35;;;3.92;;
76021;SDS011;64718;52.124;6.226;2024-02-15T08:29:59;6.68;;;4.32;;
76021;SDS011;64718;52.124;6.226;2024-02-15T08:32:28;8.80;;;4.88;;
76021;SDS011;64718;52.124;6.226;2024-02-15T08:34:54;7.68;;;4.32;;
76021;SDS011;64718;52.124;6.226;2024-02-15T08:37:21;8.95;;;4.63;;
76021;SDS011;64718;52.124;6.226;2024-02-15T08:39:47;7.25;;;4.45;;
76021;SDS011;64718;52.124;6.226;2024-02-15T08:42:14;9.10;;;5.00;;
76021;SDS011;64718;52.124;6.226;2024-02-15T08:44:42;10.68;;;5.28;;
76021;SDS011;64718;52.124;6.226;2024-02-15T08:47:08;7.90;;;4.03;;
76021;SDS011;64718;52.124;6.226;2024-02-15T08:49:35;8.88;;;4.45;;
76021;SDS011;64718;52.124;6.226;2024-02-15T08:52:01;9.70;;;5.22;;
76021;SDS011;64718;52.124;6.226;2024-02-15T08:54:28;8.65;;;5.18;;
76021;SDS011;64718;52.124;6.226;2024-02-15T08:56:57;7.95;;;5.13;;
76021;SDS011;64718;52.124;6.226;2024-02-15T08:59:24;8.57;;;5.28;;
76021;SDS011;64718;52.124;6.226;2024-02-15T09:01:53;9.25;;;4.65;;
76021;SDS011;64718;52.124;6.226;2024-02-15T09:04:21;10.20;;;5.20;;
76021;SDS011;64718;52.124;6.226;2024-02-15T09:06:49;7.22;;;4.25;;
76021;SDS011;64718;52.124;6.226;2024-02-15T09:09:16;9.82;;;5.85;;
76021;SDS011;64718;52.124;6.226;2024-02-15T09:11:42;7.50;;;5.00;;
76021;SDS011;64718;52.124;6.226;2024-02-15T09:14:09;6.70;;;4.70;;
76021;SDS011;64718;52.124;6.226;2024-02-15T09:16:35;9.13;;;4.50;;
76021;SDS011;64718;52.124;6.226;2024-02-15T09:19:03;6.57;;;3.92;;
76021;SDS011;64718;52.124;6.226;2024-02-15T09:23:58;6.32;;;4.15;;
76021;SDS011;64718;52.124;6.226;2024-02-15T09:26:25;6.63;;;4.30;;
76021;SDS011;64718;52.124;6.226;2024-02-15T09:28:52;6.63;;;4.10;;
76021;SDS011;64718;52.124;6.226;2024-02-15T09:31:19;6.80;;;4.18;;
76021;SDS011;64718;52.124;6.226;2024-02-15T09:33:46;6.85;;;3.15;;
76021;SDS011;64718;52.124;6.226;2024-02-15T09:36:13;7.25;;;3.83;;
76021;SDS011;64718;52.124;6.226;2024-02-15T09:38:41;9.23;;;5.25;;
76021;SDS011;64718;52.124;6.226;2024-02-15T09:41:08;8.05;;;4.70;;
76021;SDS011;64718;52.124;6.226;2024-02-15T09:43:34;5.50;;;4.18;;
76021;SDS011;64718;52.124;6.226;2024-02-15T09:46:01;7.68;;;3.97;;
76021;SDS011;64718;52.124;6.226;2024-02-15T09:48:29;5.38;;;3.35;;
76021;SDS011;64718;52.124;6.226;2024-02-15T09:50:58;6.97;;;4.93;;
76021;SDS011;64718;52.124;6.226;2024-02-15T09:53:27;7.18;;;4.68;;
76021;SDS011;64718;52.124;6.226;2024-02-15T09:55:54;5.80;;;4.38;;
76021;SDS011;64718;52.124;6.226;2024-02-15T09:58:28;5.05;;;4.05;;
76021;SDS011;64718;52.124;6.226;2024-02-15T10:00:58;7.38;;;3.67;;
76021;SDS011;64718;52.124;6.226;2024-02-15T10:03:29;5.30;;;3.42;;
76021;SDS011;64718;52.124;6.226;2024-02-15T10:05:56;5.88;;;3.55;;
76021;SDS011;64718;52.124;6.226;2024-02-15T10:08:23;8.68;;;4.30;;
76021;SDS011;64718;52.124;6.226;2024-02-15T10:10:58;5.95;;;3.28;;
76021;SDS011;64718;52.124;6.226;2024-02-15T10:13:32;4.47;;;3.25;;
76021;SDS011;64718;52.124;6.226;2024-02-15T10:15:59;5.43;;;3.47;;
76021;SDS011;64718;52.124;6.226;2024-02-15T10:18:25;7.72;;;3.67;;
76021;SDS011;64718;52.124;6.226;2024-02-15T10:20:57;3.83;;;2.50;;
76021;SDS011;64718;52.124;6.226;2024-02-15T10:23:24;5.03;;;2.83;;
76021;SDS011;64718;52.124;6.226;2024-02-15T10:25:51;4.90;;;3.33;;
76021;SDS011;64718;52.124;6.226;2024-02-15T10:28:22;6.43;;;3.58;;
76021;SDS011;64718;52.124;6.226;2024-02-15T10:30:49;7.07;;;3.58;;
76021;SDS011;64718;52.124;6.226;2024-02-15T10:33:18;4.70;;;4.07;;
76021;SDS011;64718;52.124;6.226;2024-02-15T10:35:45;7.70;;;3.50;;
76021;SDS011;64718;52.124;6.226;2024-02-15T10:38:12;5.50;;;3.00;;
76021;SDS011;64718;52.124;6.226;2024-02-15T10:40:40;4.47;;;3.00;;
76021;SDS011;64718;52.124;6.226;2024-02-15T10:43:08;4.57;;;3.10;;
76021;SDS011;64718;52.124;6.226;2024-02-15T10:45:39;5.72;;;3.05;;
76021;SDS011;64718;52.124;6.226;2024-02-15T10:48:07;5.60;;;3.17;;
76021;SDS011;64718;52.124;6.226;2024-02-15T10:50:33;7.40;;;3.47;;
76021;SDS011;64718;52.124;6.226;2024-02-15T10:53:00;7.28;;;3.45;;
76021;SDS011;64718;52.124;6.226;2024-02-15T10:55:38;8.45;;;3.15;;
76021;SDS011;64718;52.124;6.226;2024-02-15T10:58:12;8.45;;;3.53;;
76021;SDS011;64718;52.124;6.226;2024-02-15T11:00:43;6.50;;;3.75;;
76021;SDS011;64718;52.124;6.226;2024-02-15T11:03:13;5.80;;;3.72;;
76021;SDS011;64718;52.124;6.226;2024-02-15T11:05:45;6.82;;;3.03;;
76021;SDS011;64718;52.124;6.226;2024-02-15T11:08:12;6.25;;;3.30;;
76021;SDS011;64718;52.124;6.226;2024-02-15T11:10:42;5.65;;;3.63;;
76021;SDS011;64718;52.124;6.226;2024-02-15T11:13:09;6.50;;;3.65;;
76021;SDS011;64718;52.124;6.226;2024-02-15T11:15:42;5.32;;;3.17;;
76021;SDS011;64718;52.124;6.226;2024-02-15T11:18:19;5.55;;;2.92;;
76021;SDS011;64718;52.124;6.226;2024-02-15T11:21:10;6.90;;;3.42;;
76021;SDS011;64718;52.124;6.226;2024-02-15T11:23:37;7.68;;;3.45;;
76021;SDS011;64718;52.124;6.226;2024-02-15T11:26:05;5.45;;;3.72;;
76021;SDS011;64718;52.124;6.226;2024-02-15T11:28:43;5.72;;;3.60;;
76021;SDS011;64718;52.124;6.226;2024-02-15T11:40:18;6.28;;;2.83;;
76021;SDS011;64718;52.124;6.226;2024-02-15T11:42:48;5.70;;;2.10;;
76021;SDS011;64718;52.124;6.226;2024-02-15T11:45:15;7.65;;;4.18;;
76021;SDS011;64718;52.124;6.226;2024-02-15T11:47:43;9.02;;;4.07;;
76021;SDS011;64718;52.124;6.226;2024-02-15T11:50:16;4.05;;;2.70;;
76021;SDS011;64718;52.124;6.226;2024-02-15T11:55:11;4.20;;;2.45;;
76021;SDS011;64718;52.124;6.226;2024-02-15T11:57:39;6.63;;;3.53;;
76021;SDS011;64718;52.124;6.226;2024-02-15T12:00:19;8.43;;;3.55;;
76021;SDS011;64718;52.124;6.226;2024-02-15T12:03:06;6.47;;;3.80;;
76021;SDS011;64718;52.124;6.226;2024-02-15T12:05:52;8.68;;;2.65;;
76021;SDS011;64718;52.124;6.226;2024-02-15T12:08:37;5.82;;;3.70;;
76021;SDS011;64718;52.124;6.226;2024-02-15T12:11:21;5.13;;;2.83;;
76021;SDS011;64718;52.124;6.226;2024-02-15T12:14:05;6.82;;;2.97;;
76021;SDS011;64718;52.124;6.226;2024-02-15T12:16:59;8.20;;;4.22;;
76021;SDS011;64718;52.124;6.226;2024-02-15T12:19:44;3.47;;;2.88;;
76021;SDS011;64718;52.124;6.226;2024-02-15T12:22:12;4.85;;;2.85;;
76021;SDS011;64718;52.124;6.226;2024-02-15T12:24:39;4.53;;;2.47;;
76021;SDS011;64718;52.124;6.226;2024-02-15T12:27:06;6.78;;;2.10;;
76021;SDS011;64718;52.124;6.226;2024-02-15T12:29:33;7.10;;;2.90;;
76021;SDS011;64718;52.124;6.226;2024-02-15T12:32:00;6.72;;;2.83;;
76021;SDS011;64718;52.124;6.226;2024-02-15T12:34:28;6.00;;;2.35;;
76021;SDS011;64718;52.124;6.226;2024-02-15T12:37:04;5.47;;;3.22;;
76021;SDS011;64718;52.124;6.226;2024-02-15T12:39:33;6.13;;;1.95;;
76021;SDS011;64718;52.124;6.226;2024-02-15T12:42:00;4.88;;;2.28;;
76021;SDS011;64718;52.124;6.226;2024-02-15T12:44:26;4.65;;;3.10;;
76021;SDS011;64718;52.124;6.226;2024-02-15T12:46:57;3.92;;;2.10;;
76021;SDS011;64718;52.124;6.226;2024-02-15T12:49:28;6.35;;;1.95;;
76021;SDS011;64718;52.124;6.226;2024-02-15T12:55:07;4.95;;;1.75;;
76021;SDS011;64718;52.124;6.226;2024-02-15T12:57:35;3.65;;;2.20;;
76021;SDS011;64718;52.124;6.226;2024-02-15T13:00:05;3.90;;;1.70;;
76021;SDS011;64718;52.124;6.226;2024-02-15T13:02:36;6.85;;;2.40;;
76021;SDS011;64718;52.124;6.226;2024-02-15T13:05:04;3.88;;;2.13;;
76021;SDS011;64718;52.124;6.226;2024-02-15T13:07:30;3.72;;;1.88;;
76021;SDS011;64718;52.124;6.226;2024-02-15T13:09:57;6.00;;;2.13;;
76021;SDS011;64718;52.124;6.226;2024-02-15T13:12:25;3.72;;;1.88;;
76021;SDS011;64718;52.124;6.226;2024-02-15T13:14:52;2.33;;;1.35;;
76021;SDS011;64718;52.124;6.226;2024-02-15T13:17:19;4.93;;;1.50;;
76021;SDS011;64718;52.124;6.226;2024-02-15T13:19:46;5.15;;;1.88;;
76021;SDS011;64718;52.124;6.226;2024-02-15T13:22:14;4.00;;;1.52;;
76021;SDS011;64718;52.124;6.226;2024-02-15T13:24:40;2.28;;;1.42;;
76021;SDS011;64718;52.124;6.226;2024-02-15T13:27:07;3.40;;;2.33;;
76021;SDS011;64718;52.124;6.226;2024-02-15T13:29:38;5.15;;;2.35;;
76021;SDS011;64718;52.124;6.226;2024-02-15T13:32:06;3.42;;;2.08;;
76021;SDS011;64718;52.124;6.226;2024-02-15T13:34:35;4.72;;;1.77;;
76021;SDS011;64718;52.124;6.226;2024-02-15T13:37:02;4.35;;;2.28;;
76021;SDS011;64718;52.124;6.226;2024-02-15T13:39:29;4.57;;;1.00;;
76021;SDS011;64718;52.124;6.226;2024-02-15T13:41:58;5.40;;;2.70;;
76021;SDS011;64718;52.124;6.226;2024-02-15T13:44:26;3.30;;;2.22;;
76021;SDS011;64718;52.124;6.226;2024-02-15T13:46:54;3.25;;;2.35;;
76021;SDS011;64718;52.124;6.226;2024-02-15T13:49:20;4.10;;;1.67;;
76021;SDS011;64718;52.124;6.226;2024-02-15T13:51:47;2.55;;;1.77;;
76021;SDS011;64718;52.124;6.226;2024-02-15T13:54:16;3.97;;;1.15;;
76021;SDS011;64718;52.124;6.226;2024-02-15T13:56:43;3.53;;;1.88;;
76021;SDS011;64718;52.124;6.226;2024-02-15T13:59:10;3.60;;;1.15;;
76021;SDS011;64718;52.124;6.226;2024-02-15T14:01:36;3.03;;;1.10;;
76021;SDS011;64718;52.124;6.226;2024-02-15T14:04:09;2.70;;;1.13;;
76021;SDS011;64718;52.124;6.226;2024-02-15T14:06:36;3.75;;;2.40;;
76021;SDS011;64718;52.124;6.226;2024-02-15T14:09:05;4.40;;;1.42;;
76021;SDS011;64718;52.124;6.226;2024-02-15T14:11:31;4.78;;;1.75;;
76021;SDS011;64718;52.124;6.226;2024-02-15T14:13:58;5.38;;;2.00;;
76021;SDS011;64718;52.124;6.226;2024-02-15T14:16:24;4.00;;;1.73;;
76021;SDS011;64718;52.124;6.226;2024-02-15T14:18:51;2.70;;;0.88;;
76021;SDS011;64718;52.124;6.226;2024-02-15T14:21:20;3.35;;;1.05;;
76021;SDS011;64718;52.124;6.226;2024-02-15T14:23:47;3.25;;;1.20;;
76021;SDS011;64718;52.124;6.226;2024-02-15T14:26:14;5.28;;;2.25;;
76021;SDS011;64718;52.124;6.226;2024-02-15T14:28:41;4.78;;;2.05;;
76021;SDS011;64718;52.124;6.226;2024-02-15T14:31:10;3.03;;;1.17;;
76021;SDS011;64718;52.124;6.226;2024-02-15T14:33:55;3.08;;;1.95;;
76021;SDS011;64718;52.124;6.226;2024-02-15T14:36:23;4.53;;;1.48;;
76021;SDS011;64718;52.124;6.226;2024-02-15T14:38:49;4.65;;;1.60;;
76021;SDS011;64718;52.124;6.226;2024-02-15T14:41:17;2.42;;;0.88;;
76021;SDS011;64718;52.124;6.226;2024-02-15T14:43:45;7.55;;;2.03;;
76021;SDS011;64718;52.124;6.226;2024-02-15T14:46:12;2.63;;;1.23;;
76021;SDS011;64718;52.124;6.226;2024-02-15T14:48:39;3.00;;;1.40;;
76021;SDS011;64718;52.124;6.226;2024-02-15T14:51:05;3.60;;;1.30;;
76021;SDS011;64718;52.124;6.226;2024-02-15T14:53:35;4.32;;;1.50;;
76021;SDS011;64718;52.124;6.226;2024-02-15T14:56:02;3.15;;;1.33;;
76021;SDS011;64718;52.124;6.226;2024-02-15T14:58:31;4.50;;;2.15;;
76021;SDS011;64718;52.124;6.226;2024-02-15T15:00:57;3.53;;;2.17;;
76021;SDS011;64718;52.124;6.226;2024-02-15T15:03:24;5.68;;;2.40;;
76021;SDS011;64718;52.124;6.226;2024-02-15T15:05:51;3.33;;;1.40;;
76021;SDS011;64718;52.124;6.226;2024-02-15T15:08:36;3.17;;;1.48;;